• Join FlightAware (Why Join?)
  • Login
  • US Flag 
12:07AM EDT


 

Airport Tracker/Info


-or-


 

Live Flight TrackerFlight Track Log ✈ EJM918 ✈ 06-Oct-2013 ✈ KMIA - KTEB

Flight Track Log - Related Links

Times and Time Zones

All times are in EDT time to prevent confusion due to time zone crossing. See the EJM918 flight status page for this flight to view local times or setup timezone preferences in your user account.

Time Position Orientation Groundspeed Altitude Reporting Facility
EDT Latitude Longitude Course Direction KTS MPH feet Rate Location/Type
06:05PM 25.8003 -80.2744 88° East 168 193 900  Level Miami Center
06:06PM 25.8006 -80.2631 88° East 176 203 1,500 2,400 Climbing Miami Center
06:06PM 25.8100 -80.2172 77° East 222 255 3,400 2,520 Climbing Miami Center
06:07PM 25.8083 -80.1939 95° East 259 298 4,100 3,180 Climbing Miami Center
06:07PM 25.8158 -80.1367 82° East 279 321 6,600 3,540 Climbing Miami Center
06:08PM 25.8303 -80.0514 79° East 286 329 10,500 2,580 Climbing Miami Center
06:09PM 25.8867 -79.9631 55° Northeast 306 352 11,800 2,100 Climbing Miami Center
06:10PM 25.9514 -79.8606 55° Northeast 356 410 14,800 2,820 Climbing Miami Center
06:11PM 26.0161 -79.7583 55° Northeast 385 443 17,500 2,580 Climbing Miami Center
06:12PM 26.0872 -79.6489 54° Northeast 405 466 20,000 2,400 Climbing Miami Center
06:13PM 26.1908 -79.5794 31° Northeast 413 475 22,400 2,340 Climbing Miami Center
06:14PM 26.3153 -79.5128 26° Northeast 431 496 24,700 2,220 Climbing Miami Center
06:15PM 26.4375 -79.4531 24° Northeast 459 528 26,900 1,980 Climbing Miami Center
06:16PM 26.5597 -79.3906 25° Northeast 471 542 28,700 2,340 Climbing Miami Center
06:17PM 26.6819 -79.3258 25° Northeast 479 551 31,600 2,100 Climbing Miami Center
06:18PM 26.8042 -79.2656 24° Northeast 479 551 33,000 660 Climbing Miami Center
06:19PM 26.9117 -79.2094 25° Northeast 479 551 33,000  Level Miami Center
06:20PM 27.0275 -79.1467 26° Northeast 463 533 33,100 540 Climbing Miami Center
06:21PM 27.1475 -79.0883 23° Northeast 453 521 34,100 1,620 Climbing Miami Center
06:22PM 27.2675 -79.0250 25° Northeast 463 533 36,400 2,280 Climbing Miami Center
06:23PM 27.3936 -78.9597 25° Northeast 463 533 38,700 1,860 Climbing Miami Center
06:24PM 27.5194 -78.9339 10° North 452 520 40,200 1,560 Climbing Miami Center
06:25PM 27.6428 -78.9172 North 446 513 41,900 1,320 Climbing Miami Center
06:26PM 27.7536 -78.9006 North 446 513 42,900 960 Climbing Miami Center
06:27PM 27.8875 -78.8817 North 437 503 43,900 1,020 Climbing Miami Center
06:28PM 28.0131 -78.8653 North 437 503 45,000 540 Climbing Miami Center
06:29PM 28.1408 -78.8461 North 442 509 45,000  Level Miami Center
06:30PM 28.2661 -78.8272 North 447 514 45,000  Level Miami Center
06:32PM 28.3917 -78.8106 North 453 521 45,000  Level Miami Center
06:33PM 28.5464 -78.7897 North 453 521 45,000  Level Miami Center
06:34PM 28.6719 -78.7728 North 453 521 45,000  Level Miami Center
06:35PM 28.7953 -78.7536 North 459 528 45,000  Level Miami Center
06:36PM 28.9228 -78.7369 North 454 522 45,000  Level Miami Center
06:37PM 29.0461 -78.7175 North 454 522 45,000  Level Miami Center
06:38PM 29.1717 -78.7006 North 454 522 45,000  Level Miami Center
06:39PM 29.2950 -78.6814 North 449 517 45,000  Level Miami Center
06:40PM 29.4203 -78.6644 North 449 517 45,000  Level Miami Center
06:41PM 29.5436 -78.6450 North 444 511 45,000  Level Miami Center
06:43PM 29.8417 -78.6044 North 442 509 45,000  Level Jacksonville Center
06:44PM 29.9661 -78.5844 North 442 509 45,000  Level Jacksonville Center
06:45PM 30.0886 -78.5647 North 442 509 45,000  Level Jacksonville Center
06:46PM 30.2156 -78.5494 North 442 509 45,000  Level Jacksonville Center
06:47PM 30.3422 -78.5317 North 442 509 45,000  Level Jacksonville Center
06:48PM 30.4628 -78.5139 North 444 511 45,000  Level Jacksonville Center
06:49PM 30.5892 -78.4936 North 444 511 45,000  Level Jacksonville Center
06:50PM 30.7139 -78.4733 North 444 511 45,000  Level Jacksonville Center
06:51PM 30.8342 -78.4533 North 444 511 45,000  Level Jacksonville Center
06:52PM 30.9608 -78.4306 North 445 512 45,000  Level Jacksonville Center
06:53PM 31.0894 -78.4122 North 450 518 45,000  Level Jacksonville Center
06:54PM 31.2100 -78.3992 North 443 510 45,000  Level Jacksonville Center
06:55PM 31.3406 -78.3711 10° North 448 516 45,000  Level Jacksonville Center
06:56PM 31.4631 -78.3531 North 448 516 45,000  Level Jacksonville Center
06:57PM 31.5897 -78.3322 North 448 516 45,000  Level Jacksonville Center
06:58PM 31.7183 -78.3086 North 454 522 45,000  Level Jacksonville Center
06:59PM 31.8450 -78.2878 North 464 534 45,000  Level Jacksonville Center
07:00PM 31.9756 -78.2642 North 464 534 45,000  Level Jacksonville Center
07:01PM 32.1144 -78.2400 North 464 534 45,000  Level Jacksonville Center
07:02PM 32.2411 -78.2211 North 464 534 45,000  Level Jacksonville Center
07:03PM 32.3678 -78.2000 North 464 534 45,000  Level Jacksonville Center
07:04PM 32.4961 -78.1761 North 464 534 45,000  Level Jacksonville Center
07:05PM 32.6250 -78.1619 North 464 534 45,000  Level Jacksonville Center
07:06PM 32.7556 -78.1378 North 464 534 45,000  Level Jacksonville Center
07:07PM 32.8842 -78.1186 North 464 534 45,000  Level Jacksonville Center
07:08PM 33.0128 -78.0969 North 464 534 45,000  Level Jacksonville Center
07:10PM 33.2181 -78.0611 North 462 532 45,000  Level Washington Center
07:11PM 33.3458 -78.0400 North 467 537 45,000  Level Washington Center
07:12PM 33.4756 -78.0214 North 467 537 45,000  Level Washington Center
07:13PM 33.6031 -78.0003 North 467 537 45,000  Level Washington Center
07:14PM 33.7286 -77.9789 North 467 537 45,000  Level Washington Center
07:15PM 33.8689 -77.9553 North 461 531 45,000  Level Washington Center
07:16PM 34.0069 -77.9392 North 475 547 45,000  Level Washington Center
07:17PM 34.1364 -77.9328 North 475 547 45,000  Level Washington Center
07:18PM 34.2658 -77.9264 North 464 534 45,000  Level Washington Center
07:19PM 34.3994 -77.9278 360° North 470 541 45,000  Level Washington Center
07:20PM 34.5289 -77.9239 North 470 541 45,000  Level Washington Center
07:21PM 34.6583 -77.9200 North 464 534 45,000  Level Washington Center
07:22PM 34.7878 -77.9161 North 458 527 45,000  Level Washington Center
07:23PM 34.9108 -77.9094 North 458 527 45,000  Level Washington Center
07:24PM 35.0425 -77.9056 North 458 527 45,000  Level Washington Center
07:25PM 35.1719 -77.9017 North 458 527 45,000  Level Washington Center
07:26PM 35.2994 -77.8953 North 458 527 45,000  Level Washington Center
07:27PM 35.4308 -77.8914 North 463 533 45,000  Level Washington Center
07:28PM 35.5622 -77.8900 360° North 463 533 45,000  Level Washington Center
07:29PM 35.6939 -77.8861 North 463 533 45,000  Level Washington Center
07:30PM 35.8233 -77.8822 North 463 533 45,000  Level Washington Center
07:31PM 35.9528 -77.8783 North 463 533 45,000  Level Washington Center
07:32PM 36.0739 -77.8767 North 468 539 45,000  Level Washington Center
07:33PM 36.2053 -77.8728 North 468 539 45,000  Level Washington Center
07:34PM 36.3347 -77.8686 North 463 533 45,000  Level Washington Center
07:35PM 36.4747 -77.8625 North 458 527 45,000  Level Washington Center
07:36PM 36.5978 -77.8608 North 471 542 45,000  Level Washington Center
07:37PM 36.7272 -77.8569 North 476 548 45,000  Level Washington Center
07:38PM 36.8589 -77.8453 North 476 548 45,000  Level Washington Center
07:39PM 36.9850 -77.7864 20° North 476 548 45,000  Level Washington Center
07:40PM 37.1075 -77.7169 24° Northeast 476 548 45,000  Level Washington Center
07:41PM 37.2297 -77.6447 25° Northeast 476 548 45,000  Level Washington Center
07:42PM 37.3519 -77.5722 25° Northeast 476 548 45,000  Level Washington Center
07:43PM 37.4739 -77.4994 25° Northeast 481 554 45,000  Level Washington Center
07:44PM 37.6086 -77.4189 25° Northeast 481 554 45,000  Level Washington Center
07:45PM 37.7308 -77.3458 25° Northeast 481 554 45,000 -900 Level Washington Center
07:46PM 37.8528 -77.2697 26° Northeast 481 554 43,300 -1,740 Descending Washington Center
07:47PM 37.9769 -77.1961 25° Northeast 486 559 41,600 -1,740 Descending Washington Center
07:48PM 38.0989 -77.1222 25° Northeast 486 559 39,900 -1,740 Descending Washington Center
07:49PM 38.2228 -77.0400 28° Northeast 486 559 38,100 -1,800 Descending Washington Center
07:50PM 38.3489 -76.9683 24° Northeast 486 559 36,400 -1,800 Descending Washington Center
07:51PM 38.4644 -76.8936 27° Northeast 494 568 34,500 -1,680 Descending Washington Center
07:52PM 38.5944 -76.8161 25° Northeast 500 575 33,000 -1,680 Descending Washington Center
07:53PM 38.7183 -76.7250 30° Northeast 507 583 31,200 -1,920 Descending Washington Center
07:54PM 38.8300 -76.6017 41° Northeast 520 598 29,300 -1,620 Descending Washington Center
08:00PM 39.4957 -75.8780 41° Northeast 465 535 19,900 -1,680 Descending FlightAware ADS-B
08:00PM 39.5474 -75.8288 36° Northeast 458 527 18,500 -2,520 Descending FlightAware ADS-B
08:01PM 39.6500 -75.7333 36° Northeast 444 511 16,100 -2,400 Descending Philadelphia TRACON
08:02PM 39.7500 -75.6500 33° Northeast 423 487 13,700 -1,500 Descending Philadelphia TRACON
08:03PM 39.8333 -75.5667 38° Northeast 408 470 13,100 -360 Descending Philadelphia TRACON
08:04PM 39.9333 -75.4833 33° Northeast 416 479 13,100  Level Philadelphia TRACON
08:05PM 40.0167 -75.4000 37° Northeast 411 473 13,100 -60 Level Philadelphia TRACON
08:06PM 40.1167 -75.3000 37° Northeast 416 479 13,000 -540 Descending Philadelphia TRACON
08:07PM 40.2000 -75.2167 37° Northeast 341 392 12,000 -1,500 Descending Philadelphia TRACON
08:10PM 40.3667 -75.0333 40° Northeast 305 351 7,700 -1,560 Descending New York TRACON
08:11PM 40.4333 -74.9667 37° Northeast 297 342 6,600 -1,080 Descending New York TRACON
08:12PM 40.4833 -74.8833 52° Northeast 292 336 5,600 -1,020 Descending New York TRACON
08:13PM 40.5333 -74.8000 52° Northeast 290 334 4,600 -840 Descending New York TRACON
08:14PM 40.6000 -74.7333 37° Northeast 283 326 4,000 -300 Descending New York TRACON
08:15PM 40.6667 -74.6833 30° Northeast 287 330 4,000 -180 Level New York TRACON
08:21PM 40.9845 -74.2968 30° Northeast 242 278 2,900 -180 Descending FlightAware ADS-B
08:21PM 40.9955 -74.2786 51° Northeast 226 260 2,900  Level FlightAware ADS-B
08:22PM 41.0176 -74.2384 54° Northeast 226 260 2,900  Level FlightAware ADS-B
08:22PM 41.0189 -74.2343 67° East 192 221 2,900  Level FlightAware ADS-B
08:22PM 41.0239 -74.2176 68° East 193 222 2,900 -600 Level FlightAware ADS-B
08:23PM 41.0391 -74.1643 69° East 180 207 2,300 -840 Descending FlightAware ADS-B
08:23PM 41.0386 -74.1380 91° East 179 206 1,900 -780 Descending FlightAware ADS-B
08:23PM 41.0374 -74.1312 103° East 165 190 1,900  Level FlightAware ADS-B
08:24PM 41.0324 -74.1155 113° Southeast 162 186 1,900  Level FlightAware ADS-B
08:24PM 41.0247 -74.1008 125° Southeast 164 189 1,900  Level FlightAware ADS-B
08:24PM 41.0165 -74.0852 125° Southeast 164 189 1,900  Level FlightAware ADS-B
08:25PM 41.0046 -74.0690 134° Southeast 163 188 1,900  Level FlightAware ADS-B
08:25PM 40.9986 -74.0657 157° South 156 180 1,900  Level FlightAware ADS-B
08:25PM 40.9877 -74.0604 160° South 153 176 1,900  Level FlightAware ADS-B
08:25PM 40.9757 -74.0543 159° South 154 177 1,900  Level FlightAware ADS-B
08:26PM 40.9724 -74.0529 162° South 153 176 1,900  Level FlightAware ADS-B
08:26PM 40.9696 -74.0522 169° South 153 176 1,900  Level FlightAware ADS-B
08:26PM 40.9647 -74.0517 176° South 154 177 1,900  Level FlightAware ADS-B
08:26PM 40.9606 -74.0516 179° South 155 178 1,900  Level FlightAware ADS-B
08:26PM 40.9549 -74.0518 182° South 156 180 1,900 -540 Level FlightAware ADS-B
08:26PM 40.9440 -74.0527 184° South 156 180 1,700 -840 Descending FlightAware ADS-B
08:26PM 40.9333 -74.0535 183° South 150 173 1,500 -960 Descending FlightAware ADS-B
08:27PM 40.9305 -74.0537 183° South 149 171 1,400 -960 Descending FlightAware ADS-B
08:27PM 40.9201 -74.0542 182° South 147 169 1,200 -900 Descending FlightAware ADS-B
08:27PM 40.9120 -74.0549 184° South 130 150 1,000 -720 Descending FlightAware ADS-B
08:27PM 40.9054 -74.0555 184° South 121 139 900 -660 Descending FlightAware ADS-B
08:27PM 40.8963 -74.0561 183° South 121 139 700 -600 Descending FlightAware ADS-B
08:28PM 40.8879 -74.0567 183° South 123 142 600 -600 Descending FlightAware ADS-B
08:28PM 40.8791 -74.0573 183° South 122 140 400 -900 Descending FlightAware ADS-B
08:28PM 40.8722 -74.0579 184° South 124 143 200 -1,020 Descending FlightAware ADS-B
08:35PM 40.8500 -74.0500 99° East  Level FlightAware Approximate
08:36PM 40.8501 -74.0608 99° East  Level Estimated
08:37PM 40.8501 -74.0608 99° East  Level Estimated
08:38PM 40.8501 -74.0608 99° East  Level Estimated
08:39PM 40.8501 -74.0608 99° East  Level Estimated
08:40PM 40.8501 -74.0608 99° East  Level Estimated